Flight Track Log - Related Links

Times and Time Zones

All times are in EDT time to prevent confusion due to time zone crossing. See the GJS3649 flight status page for this flight to view local times or setup timezone preferences in your user account.

Time Position Orientation Groundspeed Altitude Reporting Facility
EDT Latitude Longitude Course Direction KTS MPH feet Rate Location/Type
Wed 09:10:06 AM 42.0167 -87.8667 66° East 148 170 2,600  Level Chicago TRACON
Wed 09:11:06 AM 42.0333 -87.8000 71° East 216 249 4,500 2,250 Climbing Chicago TRACON
Wed 09:12:06 AM 42.0667 -87.7000 66° East 271 312 7,100 2,500 Climbing Chicago TRACON
Wed 09:13:06 AM 42.1000 -87.6000 66° East 301 346 9,500 2,400 Climbing Chicago TRACON
Wed 09:14:06 AM 42.1333 -87.5000 66° East 333 383 11,900 2,268 Climbing Chicago TRACON
Wed 09:15:00 AM 42.2227 -87.1820 66° East  Level FlightAware Approximate
Wed 09:15:13 AM 42.1697 -87.3844 67° East 337 388 14,300  Level Chicago Center
Wed 09:16:14 AM 42.2219 -87.2306 65° Northeast 379 436 15,400 1,707 Climbing Chicago Center
Wed 09:17:16 AM 42.2675 -87.0975 65° Northeast 393 452 17,800 1,790 Climbing Chicago Center
Wed 09:18:18 AM 42.2831 -86.9453 82° East 413 475 19,100 1,597 Climbing Chicago Center
Wed 09:19:20 AM 42.2894 -86.7881 87° East 420 483 21,100 1,984 Climbing Chicago Center
Wed 09:20:22 AM 42.2967 -86.6136 87° East 426 490 23,200 1,500 Climbing Chicago Center
Wed 09:21:24 AM 42.3019 -86.4464 88° East 442 509 24,200 976 Climbing Chicago Center
Wed 09:22:25 AM 42.3086 -86.2700 87° East 465 535 25,200 1,024 Climbing Chicago Center
Wed 09:23:27 AM 42.3147 -86.0886 87° East 481 554 26,300 1,016 Climbing Chicago Center
Wed 09:24:29 AM 42.3122 -85.9011 91° East 496 571 27,300 968 Climbing Chicago Center
Wed 09:25:31 AM 42.3108 -85.7114 91° East 502 578 28,300 1,065 Climbing Chicago Center
Wed 09:26:33 AM 42.3089 -85.5183 91° East 511 588 29,500 1,327 Climbing Chicago Center
Wed 09:27:15 AM 42.3069 -85.3542 91° East 492 566 30,600 1,235 Climbing Cleveland Center
Wed 09:28:15 AM 42.3064 -85.1631 90° East 498 573 31,600 1,000 Climbing Cleveland Center
Wed 09:29:15 AM 42.2994 -84.9686 93° East 503 579 32,600 700 Climbing Cleveland Center
Wed 09:30:15 AM 42.3064 -84.7783 87° East 508 585 33,000 200 Climbing Cleveland Center
Wed 09:31:15 AM 42.3169 -84.6019 85° East 513 590 33,000 300 Level Cleveland Center
Wed 09:32:15 AM 42.3364 -84.4008 82° East 520 598 33,600 750 Climbing Cleveland Center
Wed 09:33:15 AM 42.3533 -84.2022 83° East 530 610 34,500 850 Climbing Cleveland Center
Wed 09:34:15 AM 42.3697 -84.0064 83° East 530 610 35,300 800 Climbing Cleveland Center
Wed 09:35:15 AM 42.3858 -83.8050 84° East 530 610 36,100 800 Climbing Cleveland Center
Wed 09:36:15 AM 42.4036 -83.6117 83° East 530 610 36,900 450 Climbing Cleveland Center
Wed 09:37:15 AM 42.4192 -83.4128 84° East 533 613 37,000 50 Climbing Cleveland Center
Wed 09:38:15 AM 42.4325 -83.1967 85° East 533 613 37,000 -450 Level Cleveland Center
Wed 09:39:15 AM 42.4472 -82.9975 84° East 533 613 36,100  Descending Cleveland Center
Wed 09:40:15 AM 42.4617 -82.8067 84° East 528 608 37,000 450 Climbing Cleveland Center
Wed 09:41:15 AM 42.4758 -82.6072 84° East 523 602 37,000  Level Cleveland Center
Wed 09:42:15 AM 42.4872 -82.4133 85° East 518 596 37,000  Level Cleveland Center
Wed 09:43:15 AM 42.5006 -82.2167 85° East 518 596 37,000  Level Cleveland Center
Wed 09:44:15 AM 42.5136 -82.0197 85° East 518 596 37,000  Level Cleveland Center
Wed 09:45:15 AM 42.5244 -81.8200 86° East 518 596 37,000  Level Cleveland Center
Wed 09:46:15 AM 42.5408 -81.6258 83° East 518 596 37,000  Level Cleveland Center
Wed 09:47:15 AM 42.5528 -81.4456 85° East 524 603 37,000  Level Cleveland Center
Wed 09:48:15 AM 42.5625 -81.2483 86° East 524 603 37,000  Level Cleveland Center
Wed 09:49:15 AM 42.5758 -81.0539 85° East 529 609 37,000  Level Cleveland Center
Wed 09:50:15 AM 42.5850 -80.8511 86° East 529 609 37,000  Level Cleveland Center
Wed 09:51:15 AM 42.5956 -80.6536 86° East 529 609 37,000 200 Level Cleveland Center
Wed 09:52:15 AM 42.6081 -80.4392 85° East 529 609 37,400 700 Climbing Cleveland Center
Wed 09:53:15 AM 42.6181 -80.2417 86° East 518 596 38,400 800 Climbing Cleveland Center
Wed 09:54:15 AM 42.6258 -80.0500 87° East 512 589 39,000 300 Climbing Cleveland Center
Wed 09:55:15 AM 42.6353 -79.8747 86° East 517 595 39,000  Level Cleveland Center
Wed 09:56:15 AM 42.6442 -79.6744 86° East 517 595 39,000  Level Cleveland Center
Wed 09:57:15 AM 42.6508 -79.4739 87° East 517 595 39,000  Level Cleveland Center
Wed 09:58:15 AM 42.6611 -79.2731 86° East 523 602 39,000  Level Cleveland Center
Wed 09:59:15 AM 42.6692 -79.0753 87° East 523 602 39,000  Level Cleveland Center
Wed 10:00:15 AM 42.6769 -78.8717 87° East 523 602 39,000  Level Cleveland Center
Wed 10:01:15 AM 42.6822 -78.6767 88° East 523 602 39,000  Level Cleveland Center
Wed 10:02:15 AM 42.6889 -78.4731 87° East 528 608 39,000  Level Cleveland Center
Wed 10:03:15 AM 42.6956 -78.2753 87° East 528 608 39,000  Level Cleveland Center
Wed 10:04:15 AM 42.7017 -78.0714 88° East 533 613 39,000  Level Cleveland Center
Wed 10:05:15 AM 42.7078 -77.8733 88° East 533 613 39,000  Level Cleveland Center
Wed 10:06:15 AM 42.7128 -77.6528 88° East 533 613 39,000  Level Cleveland Center
Wed 10:07:15 AM 42.7197 -77.4461 87° East 539 620 39,000  Level Cleveland Center
Wed 10:08:15 AM 42.7228 -77.2508 89° East 533 613 39,000  Level Cleveland Center
Wed 10:09:37 AM 42.7286 -76.9803 88° East 528 608 39,000  Level Boston Center
Wed 10:10:38 AM 42.7325 -76.7769 88° East 528 608 39,000  Level Boston Center
Wed 10:11:38 AM 42.7356 -76.5792 89° East 528 608 39,000  Level Boston Center
Wed 10:12:39 AM 42.7386 -76.3783 89° East 528 608 39,000  Level Boston Center
Wed 10:13:39 AM 42.7453 -76.1808 87° East 528 608 39,000  Level Boston Center
Wed 10:14:40 AM 42.7764 -75.9903 77° East 523 602 39,000  Level Boston Center
Wed 10:15:37 AM 42.8072 -75.7967 78° East 523 602 39,000  Level Boston Center
Wed 10:16:38 AM 42.8422 -75.6006 76° East 523 602 39,000  Level Boston Center
Wed 10:17:38 AM 42.8703 -75.4119 78° East 523 602 39,000  Level Boston Center
Wed 10:18:39 AM 42.8975 -75.2347 78° East 523 602 39,000  Level Boston Center
Wed 10:19:39 AM 42.9242 -75.0800 77° East 523 602 39,000  Level Boston Center
Wed 10:20:40 AM 42.9586 -74.8431 79° East 528 608 39,000  Level Boston Center
Wed 10:21:37 AM 42.9897 -74.6514 77° East 523 602 39,000  Level Boston Center
Wed 10:22:37 AM 43.0183 -74.4536 79° East 523 602 39,000  Level Boston Center
Wed 10:23:38 AM 43.0467 -74.2556 79° East 523 602 39,000  Level Boston Center
Wed 10:24:38 AM 43.0767 -74.0603 78° East 523 602 39,000  Level Boston Center
Wed 10:25:39 AM 43.1042 -73.8647 79° East 523 602 39,000  Level Boston Center
Wed 10:26:39 AM 43.1317 -73.6664 79° East 523 602 39,000  Level Boston Center
Wed 10:27:39 AM 43.1539 -73.5158 79° East 518 596 39,000 -1,424 Level Boston Center
Wed 10:28:37 AM 43.1956 -73.2575 77° East 523 602 36,200 -2,695 Descending Boston Center
Wed 10:29:37 AM 43.2219 -73.0583 80° East 523 602 33,700 -2,479 Descending Boston Center
Wed 10:30:38 AM 43.2478 -72.8592 80° East 523 602 31,200 -2,459 Descending Boston Center
Wed 10:31:39 AM 43.2775 -72.6625 78° East 523 602 28,700 -2,529 Descending Boston Center
Wed 10:32:39 AM 43.3028 -72.4714 80° East 523 602 26,100 -2,593 Descending Boston Center
Wed 10:33:37 AM 43.3236 -72.2858 81° East 510 587 23,600 -2,492 Descending Boston Center
Wed 10:34:37 AM 43.3461 -72.1061 80° East 494 568 21,200 -2,231 Descending Boston Center
Wed 10:35:38 AM 43.3706 -71.9317 79° East 471 542 19,100 -1,934 Descending Boston Center
Wed 10:36:38 AM 43.3883 -71.7603 82° East 454 522 17,300 -1,850 Descending Boston Center
Wed 10:37:38 AM 43.4081 -71.6000 80° East 435 501 15,400 -1,686 Descending Boston Center
Wed 10:38:39 AM 43.4278 -71.4481 80° East 411 473 13,900 -1,550 Descending Boston Center
Wed 10:39:38 AM 43.4450 -71.2933 81° East 406 467 12,300 -1,438 Descending Boston Center
Wed 10:40:40 AM 43.4644 -71.1586 79° East 406 467 11,000 -655 Descending Boston Center
Wed 10:41:37 AM 43.5022 -70.9975 72° East 406 467 11,000 -508 Level Boston Center
Wed 10:42:38 AM 43.5319 -70.8908 69° East 366 421 10,000 -1,388 Descending Boston Center
Wed 10:43:38 AM 43.5342 -70.7589 89° East 314 361 8,200 -1,636 Descending Boston Center
Wed 10:44:39 AM 43.5306 -70.6531 93° East 305 351 6,700 -1,500 Descending Boston Center
Wed 10:45:38 AM 43.5244 -70.5358 94° East 293 337 5,200 -1,261 Descending Boston Center
Wed 10:46:38 AM 43.5186 -70.4386 95° East 281 323 4,200 -1,339 Descending Boston Center
Wed 10:47:39 AM 43.5147 -70.3358 93° East 258 297 2,500 -1,059 Descending Boston Center
Wed 10:48:37 AM 43.5278 -70.2581 77° East 235 270 2,100 -403 Descending Boston Center
Wed 10:49:38 AM 43.5772 -70.2161 32° Northeast 187 215 1,700 -148 Descending Boston Center
Wed 10:50:39 AM 43.6142 -70.1889 28° Northeast 187 215 1,800  Climbing Boston Center
Wed 10:51:40 AM 43.6703 -70.1811 North 173 199 1,700 -407 Descending Boston Center
Wed 10:52:37 AM 43.6589 -70.2361 254° West 105 121 1,000 -718 Descending Boston Center
Wed 10:53:37 AM 43.6450 -70.2853 249° West 123 142 300 4,959 Descending Boston Center
Wed 10:54:38 AM 43.6356 -70.3344 255° West 128 147 11,000 5,350 Climbing Boston Center
Wed 10:55:37 AM 43.6261 -70.3836 255° West 128 147 11,000  Level Boston Center
Wed 10:56:37 AM 43.6167 -70.4356 256° West 128 147 11,000  Level Boston Center

Login

Don't have an account? Register now (free) for customized features, flight alerts, and more!